Terminal Aerodrome Forecast
Issued by NWS Huntsville, AL

Home | Current Version | Previous Version | Text Only | Print | Product List | Glossary On
Versions: 1 2 3 4 5 6 7 8 9 10 11 12 13 14 15 16
000
FTUS44 KHUN 021736
TAFMSL
TAF
KMSL 021736Z 0218/0318 23006KT P6SM VCTS SCT025CB OVC090
      TEMPO 0218/0221 4SM -TSRA BKN025CB
     FM022100 26005KT P6SM VCTS BKN030CB
     FM030200 32005KT 5SM BR SCT015 BKN030 BKN250
     FM031200 32005KT 6SM BR SCT010 BKN250
      AMD NOT SKED=

USA.gov is the U.S. government's official web portal to all federal, state and local government web resources and services.